Ennis, MT (59729)

7:20 AM MST on December 25, 2014 (GMT -0700)
McAllister Station | Change Station
CLOSE
Current Station
Personal Weather Station
Location: McAllister, MT
Elevation: 4915 ft
Nearby Weather Stations
Active Advisory: Winter Weather Advisory Active Notice: Record Report, Local Storm Report

Elev 4915 ft 45.42 °N, 111.73 °W | Updated 28 seconds ago

Snow
Snow
23.0 °F
Feels Like 9 °F
N
19.0
Wind Variable Wind from NW
Gusts 23.0 mph

Today
High -- | Low -- °F
--% Chance of Precip.
Yesterday
High -- | Low -- °F
Precip. -- in
8:05 AM 4:49 PM
Waxing Crescent, 16% visible
Pressure 29.74 in
Visibility 10.0 miles
Clouds Few 2700 ft
Overcast 4800 ft
Windchill 9 °F
Dew Point 20 °F
Humidity 88%
Rainfall 0.00 in
Snow Depth Not available.
UV 0 out of 12
Pollen .10 out of 12
Air Quality Not available.
Flu Activity Not available.
METAR KDLN 251353Z AUTO 03011KT 10SM FEW027 OVC048 M05/M08 A2965 RMK AO2 SLP069 T10501078

More Conditions Fewer Conditions

Pressure 29.74 in
Visibility 10.0 miles
Clouds Few 2700 ft
Overcast 4800 ft
Windchill 9 °F
Dew Point 20 °F
Humidity 88%
Rainfall 0.00 in
Snow Depth Not available.
UV 0 out of 12
Pollen .10 out of 12
Air Quality Not available.
Flu Activity Not available.
METAR KDLN 251353Z AUTO 03011KT 10SM FEW027 OVC048 M05/M08 A2965 RMK AO2 SLP069 T10501078

More Conditions Fewer Conditions

10-Day Weather Forecast

Almanac

Astronomy

Dec. 25, 2014 Rise Set
Actual Time
Civil Twilight
Nautical Twilight
Astronomical Twilight
Moon
Length of Visible Light
Length of Day
Tomorrow will be .
, % of the Moon is Illuminated

Today's Extremes

State Highs State Lows

Community

WunderPhotos

Upload Photos

1,780,277 photos uploaded!

WunderBlogs® & News

Nearby

Air Quality

  Air Quality AQ Index Pollutant
Not available.

Snow Depth

Station Depth Elevation

Earthquake Activity

City Distance Mag. Time & Date
Minimum magnitude displayed is 2.5.

Coastal Water Temperatures

Place Temperature

Nearby Weather Stations